Time;durP1;ratioP1;P1;durP2;ratioP2;P2;SDS_P1;SDS_P2;PMS_P1;PMS_P2;Temp;Humidity;BMP_temperature;BMP_pressure;BME280_temperature;BME280_humidity;BME280_pressure;Samples;Min_cycle;Max_cycle;Signal;HPM_P1;HPM_P2
2022/10/10 00:00:05;;;;;;;39.20;24.38;;;;;;;;;;5052934;28;20665;-68
2022/10/10 00:03:10;;;;;;;37.55;23.13;;;;;;;;;;5052911;28;20052;-68
2022/10/10 00:06:15;;;;;;;37.65;22.70;;;;;;;;;;5052078;28;20044;-68
2022/10/10 00:09:19;;;;;;;34.58;22.77;;;;;;;;;;5053047;28;20051;-68
2022/10/10 00:12:23;;;;;;;33.97;22.67;;;;;;;;;;5053213;28;20384;-69
2022/10/10 00:15:28;;;;;;;35.95;23.23;;;;;;;;;;5052973;28;20043;-68
2022/10/10 00:18:33;;;;;;;35.78;21.80;;;;;;;;;;5052856;28;20048;-68
2022/10/10 00:21:37;;;;;;;32.30;21.17;;;;;;;;;;5052704;28;20044;-68
2022/10/10 00:24:41;;;;;;;37.28;23.13;;;;;;;;;;5052417;28;20044;-68
2022/10/10 00:27:47;;;;;;;33.03;22.17;;;;;;;;;;5052367;28;20044;-68
2022/10/10 00:30:51;;;;;;;41.55;22.85;;;;;;;;;;5051648;28;20044;-68
2022/10/10 00:33:55;;;;;;;35.08;23.77;;;;;;;;;;5052471;28;20039;-69
2022/10/10 00:36:59;;;;;;;40.60;24.85;;;;;;;;;;5052289;28;20052;-69
2022/10/10 00:40:04;;;;;;;35.67;24.40;;;;;;;;;;5052309;28;20396;-68
2022/10/10 00:43:09;;;;;;;39.03;23.08;;;;;;;;;;5051981;28;20076;-68
2022/10/10 00:46:14;;;;;;;36.42;24.00;;;;;;;;;;5052042;28;20040;-69
2022/10/10 00:49:20;;;;;;;34.92;24.15;;;;;;;;;;5052083;28;20060;-68
2022/10/10 00:52:24;;;;;;;37.60;22.67;;;;;;;;;;5052140;28;20135;-69
2022/10/10 00:55:28;;;;;;;32.85;23.17;;;;;;;;;;5051981;28;20055;-68
2022/10/10 00:58:34;;;;;;;31.95;22.63;;;;;;;;;;5051893;28;20400;-68
2022/10/10 01:01:39;;;;;;;30.40;21.70;;;;;;;;;;5052127;28;20116;-68
2022/10/10 01:04:44;;;;;;;33.17;22.05;;;;;;;;;;5051701;28;20056;-68
2022/10/10 01:07:48;;;;;;;32.72;21.95;;;;;;;;;;5052062;28;20392;-69
2022/10/10 01:11:12;;;;;;;33.42;22.52;;;;;;;;;;5051860;28;20448;-69
2022/10/10 01:14:43;;;;;;;33.40;22.70;;;;;;;;;;5051888;28;20044;-68
2022/10/10 01:17:49;;;;;;;33.88;21.25;;;;;;;;;;5048683;28;20040;-68
2022/10/10 01:21:03;;;;;;;37.13;22.80;;;;;;;;;;5051812;28;20480;-68
2022/10/10 01:24:26;;;;;;;30.05;21.75;;;;;;;;;;5051536;28;20075;-68
2022/10/10 01:27:36;;;;;;;31.42;21.30;;;;;;;;;;5051254;28;20048;-68
2022/10/10 01:30:40;;;;;;;36.20;22.40;;;;;;;;;;5051382;28;20495;-68
2022/10/10 01:33:57;;;;;;;31.13;21.88;;;;;;;;;;5051381;28;20040;-68
2022/10/10 01:37:07;;;;;;;36.38;21.92;;;;;;;;;;5051324;28;20047;-68
2022/10/10 01:40:15;;;;;;;34.58;21.90;;;;;;;;;;5051273;28;20396;-68
2022/10/10 01:43:19;;;;;;;34.25;21.52;;;;;;;;;;5051333;28;20056;-68
2022/10/10 01:46:24;;;;;;;33.47;22.65;;;;;;;;;;5051180;28;20039;-68
2022/10/10 01:49:31;;;;;;;33.35;23.77;;;;;;;;;;5051275;28;20052;-68
2022/10/10 01:52:48;;;;;;;29.15;22.10;;;;;;;;;;5051050;28;20044;-68
2022/10/10 01:55:56;;;;;;;34.10;23.05;;;;;;;;;;5050981;28;20059;-68
2022/10/10 01:59:00;;;;;;;30.67;21.95;;;;;;;;;;5050991;28;20056;-68
2022/10/10 02:02:12;;;;;;;33.35;23.42;;;;;;;;;;5051052;28;20043;-68
2022/10/10 02:05:22;;;;;;;29.88;22.60;;;;;;;;;;5050827;28;20052;-68
2022/10/10 02:08:35;;;;;;;37.13;22.33;;;;;;;;;;5051261;28;20037;-68
2022/10/10 02:11:40;;;;;;;29.17;21.50;;;;;;;;;;5051034;28;20040;-68
2022/10/10 02:14:45;;;;;;;32.17;21.27;;;;;;;;;;5051119;28;20044;-68
2022/10/10 02:17:50;;;;;;;36.55;21.38;;;;;;;;;;5050757;28;20052;-68
2022/10/10 02:20:55;;;;;;;30.10;21.63;;;;;;;;;;5050863;28;20040;-68
2022/10/10 02:24:02;;;;;;;32.90;21.75;;;;;;;;;;5050385;28;20055;-68
2022/10/10 02:27:08;;;;;;;35.25;23.38;;;;;;;;;;5061638;28;20052;-68
2022/10/10 02:30:16;;;;;;;35.10;22.65;;;;;;;;;;5050765;28;20055;-68
2022/10/10 02:33:25;;;;;;;31.65;23.13;;;;;;;;;;5050647;28;20044;-68
2022/10/10 02:36:30;;;;;;;36.33;23.40;;;;;;;;;;5050597;28;20048;-68
2022/10/10 02:39:36;;;;;;;34.55;23.20;;;;;;;;;;5050950;28;20040;-68
2022/10/10 02:42:40;;;;;;;36.38;25.27;;;;;;;;;;5061399;28;20064;-68
2022/10/10 02:45:44;;;;;;;34.08;24.42;;;;;;;;;;5050354;28;20422;-68
2022/10/10 02:48:48;;;;;;;31.88;23.08;;;;;;;;;;5050304;28;20064;-68
2022/10/10 02:51:53;;;;;;;34.63;23.33;;;;;;;;;;5051539;28;20048;-68
2022/10/10 02:54:57;;;;;;;30.38;23.38;;;;;;;;;;5054058;28;20147;-68
2022/10/10 02:58:02;;;;;;;31.35;23.60;;;;;;;;;;5054433;28;20044;-68
2022/10/10 03:01:06;;;;;;;41.78;26.50;;;;;;;;;;5054170;28;20040;-68
2022/10/10 03:04:10;;;;;;;34.67;25.75;;;;;;;;;;5053874;28;20044;-69
2022/10/10 03:07:15;;;;;;;32.70;23.83;;;;;;;;;;5053972;28;20039;-68
2022/10/10 03:10:19;;;;;;;37.25;26.15;;;;;;;;;;5054268;28;20392;-68
2022/10/10 03:13:23;;;;;;;34.70;25.05;;;;;;;;;;5052983;28;20065;-68
2022/10/10 03:16:27;;;;;;;33.42;24.48;;;;;;;;;;5053880;28;20048;-69
2022/10/10 03:19:32;;;;;;;37.85;25.85;;;;;;;;;;5053803;28;20051;-68
2022/10/10 03:22:36;;;;;;;32.78;24.02;;;;;;;;;;5054059;28;20040;-68
2022/10/10 03:25:41;;;;;;;34.33;24.48;;;;;;;;;;5053593;28;20119;-68
2022/10/10 03:28:46;;;;;;;34.92;24.23;;;;;;;;;;5054034;28;20047;-68
2022/10/10 03:31:50;;;;;;;34.35;24.92;;;;;;;;;;5053924;28;20047;-68
2022/10/10 03:34:54;;;;;;;37.42;24.08;;;;;;;;;;5053321;28;20047;-68
2022/10/10 03:37:59;;;;;;;34.80;23.33;;;;;;;;;;5053606;28;20072;-68
2022/10/10 03:41:04;;;;;;;31.63;24.15;;;;;;;;;;5053425;28;20040;-68
2022/10/10 03:44:08;;;;;;;33.58;24.98;;;;;;;;;;5053425;28;20090;-68
2022/10/10 03:47:12;;;;;;;34.17;24.55;;;;;;;;;;5052872;28;20040;-68
2022/10/10 03:50:17;;;;;;;32.63;25.02;;;;;;;;;;5053263;28;20064;-68
2022/10/10 03:53:21;;;;;;;33.78;24.42;;;;;;;;;;5052666;28;20044;-68
2022/10/10 03:56:25;;;;;;;33.80;24.92;;;;;;;;;;5052903;28;20048;-68
2022/10/10 03:59:30;;;;;;;37.72;25.98;;;;;;;;;;5053398;28;20056;-68
2022/10/10 04:02:34;;;;;;;39.08;26.15;;;;;;;;;;5053196;28;20040;-68
2022/10/10 04:05:39;;;;;;;32.20;25.45;;;;;;;;;;5052820;28;20056;-68
2022/10/10 04:08:43;;;;;;;36.10;25.58;;;;;;;;;;5053049;28;20048;-68
2022/10/10 04:11:47;;;;;;;31.75;24.40;;;;;;;;;;5053183;28;20040;-68
2022/10/10 04:14:51;;;;;;;32.63;22.83;;;;;;;;;;5052037;28;20048;-68
2022/10/10 04:17:56;;;;;;;29.05;22.60;;;;;;;;;;5052808;28;20051;-68
2022/10/10 04:21:02;;;;;;;29.67;23.58;;;;;;;;;;5052784;28;20051;-69
2022/10/10 04:24:06;;;;;;;38.55;23.30;;;;;;;;;;5052604;28;20060;-68
2022/10/10 04:27:10;;;;;;;32.25;23.45;;;;;;;;;;5051641;28;20044;-68
2022/10/10 04:30:15;;;;;;;32.88;22.15;;;;;;;;;;5052790;28;20396;-68
2022/10/10 04:33:19;;;;;;;34.50;23.60;;;;;;;;;;5052495;28;20063;-69
2022/10/10 04:36:23;;;;;;;32.60;23.50;;;;;;;;;;5052339;28;20044;-68
2022/10/10 04:39:28;;;;;;;34.90;24.67;;;;;;;;;;5052384;28;20044;-68
2022/10/10 04:42:33;;;;;;;30.95;24.27;;;;;;;;;;5052667;28;20043;-68
2022/10/10 04:45:37;;;;;;;35.35;28.42;;;;;;;;;;5062808;28;20055;-68
2022/10/10 04:48:41;;;;;;;39.92;29.67;;;;;;;;;;5051794;28;20424;-68
2022/10/10 04:51:45;;;;;;;33.00;25.27;;;;;;;;;;5052271;28;20052;-68
2022/10/10 04:54:49;;;;;;;34.00;26.13;;;;;;;;;;5052269;28;20060;-68
2022/10/10 04:57:54;;;;;;;36.42;25.33;;;;;;;;;;5051767;28;20048;-69
2022/10/10 05:00:58;;;;;;;37.13;24.63;;;;;;;;;;5052099;28;20199;-69
2022/10/10 05:04:03;;;;;;;35.17;24.13;;;;;;;;;;5051839;28;20043;-68
2022/10/10 05:07:07;;;;;;;37.90;25.83;;;;;;;;;;5051907;28;20048;-69
2022/10/10 05:10:11;;;;;;;38.17;24.27;;;;;;;;;;5039075;28;20057;-68
2022/10/10 05:13:16;;;;;;;35.00;23.70;;;;;;;;;;5051494;28;20044;-69
2022/10/10 05:16:20;;;;;;;38.13;25.15;;;;;;;;;;5050361;28;20040;-68
2022/10/10 05:19:27;;;;;;;40.13;24.67;;;;;;;;;;5051713;28;20653;-69
2022/10/10 05:22:32;;;;;;;33.95;24.40;;;;;;;;;;5051569;28;20388;-69
2022/10/10 05:25:36;;;;;;;40.75;23.95;;;;;;;;;;5051514;28;20056;-68
2022/10/10 05:28:40;;;;;;;42.13;23.30;;;;;;;;;;5051387;28;20282;-69
2022/10/10 05:31:44;;;;;;;37.35;23.67;;;;;;;;;;5051374;28;20068;-70
2022/10/10 05:34:49;;;;;;;34.10;23.08;;;;;;;;;;5050707;28;20044;-66
2022/10/10 05:37:53;;;;;;;37.67;23.90;;;;;;;;;;5051180;28;20055;-66
2022/10/10 05:40:57;;;;;;;34.20;22.67;;;;;;;;;;5050898;28;20040;-66
2022/10/10 05:44:02;;;;;;;30.45;22.42;;;;;;;;;;5050673;28;20404;-66
2022/10/10 05:47:06;;;;;;;33.25;22.92;;;;;;;;;;5051118;28;20052;-67
2022/10/10 05:50:25;;;;;;;37.70;22.80;;;;;;;;;;5051049;28;20048;-66
2022/10/10 05:53:29;;;;;;;40.95;24.17;;;;;;;;;;5051286;28;20123;-67
2022/10/10 05:56:37;;;;;;;42.60;30.63;;;;;;;;;;5051057;28;20044;-66
2022/10/10 05:59:40;;;;;;;41.50;23.15;;;;;;;;;;5050950;28;20047;-66
2022/10/10 06:02:45;;;;;;;31.30;22.02;;;;;;;;;;5050473;28;20044;-67
2022/10/10 06:05:50;;;;;;;31.02;22.98;;;;;;;;;;5050350;28;20048;-67
2022/10/10 06:08:55;;;;;;;37.85;22.45;;;;;;;;;;5049344;28;20508;-67
2022/10/10 06:11:59;;;;;;;40.15;23.77;;;;;;;;;;5050378;28;20389;-67
2022/10/10 06:15:03;;;;;;;38.67;23.65;;;;;;;;;;5051146;28;20056;-67
2022/10/10 06:18:08;;;;;;;37.38;21.73;;;;;;;;;;5050522;28;20044;-67
2022/10/10 06:21:12;;;;;;;36.38;21.58;;;;;;;;;;5050130;28;20040;-66
2022/10/10 06:24:16;;;;;;;48.17;23.88;;;;;;;;;;5049415;28;20527;-67
2022/10/10 06:27:21;;;;;;;36.42;21.58;;;;;;;;;;5051798;28;20044;-67
2022/10/10 06:30:25;;;;;;;30.27;21.08;;;;;;;;;;5053921;28;20040;-67
2022/10/10 06:33:29;;;;;;;33.95;21.85;;;;;;;;;;5054495;28;20044;-67
2022/10/10 06:36:34;;;;;;;31.35;19.52;;;;;;;;;;5054451;28;20052;-66
2022/10/10 06:39:38;;;;;;;29.40;18.90;;;;;;;;;;5054180;28;20400;-66
2022/10/10 06:42:43;;;;;;;29.60;18.58;;;;;;;;;;5052872;28;20075;-65
2022/10/10 06:45:49;;;;;;;33.85;19.17;;;;;;;;;;5054585;28;20388;-68
2022/10/10 06:48:54;;;;;;;55.67;31.30;;;;;;;;;;5053188;28;20055;-68
2022/10/10 06:51:58;;;;;;;46.47;26.20;;;;;;;;;;5052782;28;20040;-66
2022/10/10 06:55:03;;;;;;;26.55;20.42;;;;;;;;;;5053801;28;20048;-67
2022/10/10 06:58:07;;;;;;;26.98;18.17;;;;;;;;;;5053984;28;20051;-64
2022/10/10 07:01:11;;;;;;;30.42;17.23;;;;;;;;;;5053688;28;20044;-66
2022/10/10 07:04:16;;;;;;;27.92;16.90;;;;;;;;;;5054068;28;20060;-65
2022/10/10 07:07:20;;;;;;;21.83;15.55;;;;;;;;;;5053835;28;20040;-64
2022/10/10 07:10:25;;;;;;;22.92;16.52;;;;;;;;;;5054012;28;20052;-65
2022/10/10 07:13:29;;;;;;;23.35;15.35;;;;;;;;;;5054047;28;20515;-65
2022/10/10 07:16:34;;;;;;;26.38;18.13;;;;;;;;;;5053641;28;20044;-64
2022/10/10 07:19:38;;;;;;;38.92;19.38;;;;;;;;;;5064507;28;20574;-81
2022/10/10 07:22:42;;;;;;;32.83;19.73;;;;;;;;;;5053916;28;20056;-66
2022/10/10 07:25:47;;;;;;;31.73;19.13;;;;;;;;;;5053755;28;20052;-65
2022/10/10 07:28:52;;;;;;;40.55;20.33;;;;;;;;;;5053525;28;20048;-65
2022/10/10 07:31:56;;;;;;;30.20;17.20;;;;;;;;;;5053440;28;20048;-68
2022/10/10 07:35:01;;;;;;;20.77;15.20;;;;;;;;;;5052413;28;20044;-70
2022/10/10 07:38:05;;;;;;;29.67;17.58;;;;;;;;;;5052832;28;20420;-67
2022/10/10 07:41:11;;;;;;;24.00;15.95;;;;;;;;;;5052233;28;20040;-67
2022/10/10 07:44:16;;;;;;;25.48;15.02;;;;;;;;;;5051192;28;20068;-67
2022/10/10 07:47:20;;;;;;;28.98;14.80;;;;;;;;;;5052287;28;20048;-67
2022/10/10 07:50:24;;;;;;;32.95;17.33;;;;;;;;;;5052223;28;20052;-67
2022/10/10 07:53:28;;;;;;;22.92;18.08;;;;;;;;;;5052176;28;20044;-67
2022/10/10 07:56:33;;;;;;;33.72;19.73;;;;;;;;;;5052541;28;20392;-67
2022/10/10 07:59:39;;;;;;;38.47;21.25;;;;;;;;;;5051270;28;20064;-67
2022/10/10 08:02:44;;;;;;;29.95;19.17;;;;;;;;;;5051102;28;20052;-67
2022/10/10 08:05:48;;;;;;;25.98;17.60;;;;;;;;;;5050837;28;20404;-67
2022/10/10 08:08:52;;;;;;;30.58;17.50;;;;;;;;;;5052382;28;20503;-67
2022/10/10 08:11:57;;;;;;;24.17;17.73;;;;;;;;;;5051641;28;20044;-67
2022/10/10 08:15:01;;;;;;;22.13;16.02;;;;;;;;;;5052387;28;20067;-67
2022/10/10 08:18:05;;;;;;;25.48;15.02;;;;;;;;;;5051993;28;20040;-67
2022/10/10 08:21:11;;;;;;;22.55;17.83;;;;;;;;;;5052181;28;20044;-67
2022/10/10 08:24:15;;;;;;;21.52;14.68;;;;;;;;;;5052420;28;20058;-67
2022/10/10 08:27:19;;;;;;;21.95;15.43;;;;;;;;;;5052391;28;20048;-67
2022/10/10 08:30:24;;;;;;;17.70;13.00;;;;;;;;;;5052608;28;20534;-67
2022/10/10 08:33:28;;;;;;;23.63;12.75;;;;;;;;;;5052570;28;20048;-68
2022/10/10 08:36:32;;;;;;;24.10;16.13;;;;;;;;;;5052121;28;20052;-68
2022/10/10 08:39:36;;;;;;;20.23;14.25;;;;;;;;;;5052646;28;20047;-66
2022/10/10 08:42:45;;;;;;;23.30;16.73;;;;;;;;;;5052378;28;20040;-66
2022/10/10 08:45:50;;;;;;;20.58;13.65;;;;;;;;;;5051801;28;20051;-68
2022/10/10 08:48:56;;;;;;;26.27;18.30;;;;;;;;;;5051768;28;20507;-68
2022/10/10 08:52:19;;;;;;;24.90;15.73;;;;;;;;;;5052184;28;20055;-68
2022/10/10 08:55:34;;;;;;;15.10;10.15;;;;;;;;;;5052545;28;20095;-67
2022/10/10 08:58:41;;;;;;;14.80;11.27;;;;;;;;;;5051119;28;20060;-67
2022/10/10 09:01:46;;;;;;;18.48;11.45;;;;;;;;;;5051899;28;20044;-67
2022/10/10 09:04:50;;;;;;;19.27;11.55;;;;;;;;;;5051553;28;20511;-67
2022/10/10 09:07:54;;;;;;;13.27;9.90;;;;;;;;;;5051494;28;20397;-67
2022/10/10 09:11:11;;;;;;;13.77;9.15;;;;;;;;;;5051712;28;20037;-67
2022/10/10 09:14:26;;;;;;;15.52;8.80;;;;;;;;;;5051612;28;20041;-68
2022/10/10 09:17:45;;;;;;;13.80;9.25;;;;;;;;;;5051339;28;20041;-67
2022/10/10 09:21:04;;;;;;;13.18;7.95;;;;;;;;;;5051732;28;20056;-67
2022/10/10 09:24:14;;;;;;;11.80;7.45;;;;;;;;;;5051619;28;20052;-67
2022/10/10 09:27:24;;;;;;;8.57;6.63;;;;;;;;;;5051368;28;20040;-67
2022/10/10 09:30:31;;;;;;;9.23;6.95;;;;;;;;;;5051183;28;20267;-67
2022/10/10 09:33:38;;;;;;;8.73;6.85;;;;;;;;;;5051057;28;20037;-67
2022/10/10 09:36:42;;;;;;;12.13;6.50;;;;;;;;;;5050823;28;20184;-67
2022/10/10 09:40:00;;;;;;;8.63;6.15;;;;;;;;;;5050864;28;20041;-67
2022/10/10 09:43:11;;;;;;;10.98;7.07;;;;;;;;;;5051119;28;20370;-67
2022/10/10 09:46:15;;;;;;;9.65;6.50;;;;;;;;;;5050917;28;20057;-67
2022/10/10 09:49:20;;;;;;;8.70;5.65;;;;;;;;;;5050783;28;20037;-67
2022/10/10 09:52:29;;;;;;;9.15;5.72;;;;;;;;;;5050925;28;20036;-67
2022/10/10 09:55:34;;;;;;;9.48;5.40;;;;;;;;;;5051059;28;20037;-68
2022/10/10 09:58:43;;;;;;;8.40;6.30;;;;;;;;;;5050854;28;20041;-68
2022/10/10 10:02:00;;;;;;;13.50;7.45;;;;;;;;;;5050013;28;20037;-68
2022/10/10 10:05:16;;;;;;;10.43;6.45;;;;;;;;;;5050939;28;20045;-66
2022/10/10 10:08:26;;;;;;;8.43;6.10;;;;;;;;;;5050898;28;20036;-68
2022/10/10 10:11:35;;;;;;;6.70;5.70;;;;;;;;;;5051085;28;20052;-66
2022/10/10 10:14:40;;;;;;;8.43;6.10;;;;;;;;;;5050998;28;20044;-66
2022/10/10 10:17:44;;;;;;;7.97;5.90;;;;;;;;;;5050881;28;20361;-67
2022/10/10 10:20:50;;;;;;;10.45;6.05;;;;;;;;;;5051026;28;20032;-66
2022/10/10 10:24:02;;;;;;;9.10;6.70;;;;;;;;;;5050389;28;20033;-66
2022/10/10 10:27:10;;;;;;;9.38;6.43;;;;;;;;;;5050391;28;20421;-66
2022/10/10 10:30:24;;;;;;;11.05;6.57;;;;;;;;;;5050730;28;20033;-67
2022/10/10 10:33:37;;;;;;;11.15;5.60;;;;;;;;;;5050690;28;20059;-68
2022/10/10 10:36:55;;;;;;;12.40;6.38;;;;;;;;;;5050607;28;20033;-68
2022/10/10 10:40:19;;;;;;;9.85;6.00;;;;;;;;;;5050436;28;20377;-68
2022/10/10 10:43:46;;;;;;;11.35;8.57;;;;;;;;;;5050711;28;20476;-68
2022/10/10 10:46:50;;;;;;;13.23;7.22;;;;;;;;;;5046028;28;20045;-68
2022/10/10 10:49:54;;;;;;;12.07;7.25;;;;;;;;;;5050565;28;20053;-68
2022/10/10 10:53:11;;;;;;;13.60;8.57;;;;;;;;;;5050542;28;20037;-67
2022/10/10 10:56:18;;;;;;;8.50;6.70;;;;;;;;;;5050669;28;20041;-68
2022/10/10 10:59:22;;;;;;;8.43;5.95;;;;;;;;;;5050746;28;20389;-66
2022/10/10 11:02:32;;;;;;;10.52;7.05;;;;;;;;;;5050552;28;20029;-66
2022/10/10 11:05:42;;;;;;;16.98;8.07;;;;;;;;;;5050202;28;20045;-68
2022/10/10 11:08:49;;;;;;;16.30;7.88;;;;;;;;;;5050625;28;20033;-68
2022/10/10 11:11:59;;;;;;;11.77;7.22;;;;;;;;;;5050517;28;20044;-67
2022/10/10 11:15:03;;;;;;;10.35;7.68;;;;;;;;;;5053838;28;20042;-68
2022/10/10 11:18:17;;;;;;;11.30;7.50;;;;;;;;;;5053951;28;20041;-65
2022/10/10 11:21:25;;;;;;;7.95;6.15;;;;;;;;;;5053876;28;20384;-67
2022/10/10 11:24:33;;;;;;;8.23;5.80;;;;;;;;;;5053914;28;20037;-68
2022/10/10 11:27:44;;;;;;;9.40;6.57;;;;;;;;;;5053915;28;20041;-67
2022/10/10 11:30:52;;;;;;;12.82;7.13;;;;;;;;;;5053876;28;20037;-67
2022/10/10 11:34:02;;;;;;;10.57;7.10;;;;;;;;;;5053595;28;20053;-67
2022/10/10 11:37:11;;;;;;;9.63;6.60;;;;;;;;;;5053594;28;20033;-68
2022/10/10 11:40:36;;;;;;;9.88;6.70;;;;;;;;;;5053240;28;20041;-67
2022/10/10 11:43:46;;;;;;;10.48;6.95;;;;;;;;;;5053278;28;20037;-67
2022/10/10 11:46:59;;;;;;;16.50;8.10;;;;;;;;;;5053529;28;20052;-67
2022/10/10 11:50:03;;;;;;;13.13;7.28;;;;;;;;;;5053355;28;20404;-65
2022/10/10 11:53:20;;;;;;;12.75;7.05;;;;;;;;;;5053241;28;20048;-67
2022/10/10 11:56:29;;;;;;;11.52;8.30;;;;;;;;;;5053308;28;20033;-67
2022/10/10 11:59:44;;;;;;;11.52;7.65;;;;;;;;;;5053089;28;20037;-67
2022/10/10 12:02:49;;;;;;;10.20;6.72;;;;;;;;;;5053373;28;20040;-67
2022/10/10 12:06:03;;;;;;;17.58;8.05;;;;;;;;;;5052607;28;20049;-67
2022/10/10 12:09:10;;;;;;;12.73;8.40;;;;;;;;;;5052418;28;20041;-67
2022/10/10 12:12:17;;;;;;;11.15;7.43;;;;;;;;;;5052905;28;20045;-67
2022/10/10 12:15:29;;;;;;;10.38;6.95;;;;;;;;;;5052950;28;20037;-67
2022/10/10 12:18:39;;;;;;;12.18;8.18;;;;;;;;;;5052905;28;20033;-67
2022/10/10 12:21:53;;;;;;;14.93;7.13;;;;;;;;;;5053104;28;20038;-67
2022/10/10 12:25:12;;;;;;;12.25;7.47;;;;;;;;;;5051753;28;20045;-65
2022/10/10 12:28:17;;;;;;;8.05;6.43;;;;;;;;;;5052669;28;20036;-67
2022/10/10 12:31:33;;;;;;;15.25;8.00;;;;;;;;;;5052926;28;20048;-65
2022/10/10 12:34:43;;;;;;;10.25;6.97;;;;;;;;;;5052580;28;20037;-67
2022/10/10 12:38:14;;;;;;;10.43;6.27;;;;;;;;;;5052559;28;20033;-67
2022/10/10 12:41:18;;;;;;;11.75;7.07;;;;;;;;;;5052170;28;20044;-67
2022/10/10 12:44:43;;;;;;;17.52;7.82;;;;;;;;;;5052236;28;20052;-67
2022/10/10 12:47:47;;;;;;;13.65;7.78;;;;;;;;;;5052235;28;20056;-67
2022/10/10 12:50:56;;;;;;;11.43;7.13;;;;;;;;;;5052345;28;20396;-65
2022/10/10 12:54:02;;;;;;;13.10;8.07;;;;;;;;;;5052342;28;20050;-67
2022/10/10 12:57:26;;;;;;;14.18;8.80;;;;;;;;;;5051875;28;20408;-67
2022/10/10 13:00:39;;;;;;;10.00;6.97;;;;;;;;;;5052127;28;20496;-67
2022/10/10 13:03:44;;;;;;;12.82;7.32;;;;;;;;;;5052220;28;20056;-66
2022/10/10 13:06:52;;;;;;;13.18;6.70;;;;;;;;;;5052105;28;20045;-65
2022/10/10 13:10:04;;;;;;;10.25;6.70;;;;;;;;;;5051858;28;20037;-65
2022/10/10 13:13:19;;;;;;;11.85;8.30;;;;;;;;;;5051746;28;20497;-65
2022/10/10 13:16:27;;;;;;;18.80;9.52;;;;;;;;;;5051470;28;20040;-65
2022/10/10 13:19:40;;;;;;;18.98;8.40;;;;;;;;;;5051868;28;20033;-65
2022/10/10 13:22:45;;;;;;;11.63;7.03;;;;;;;;;;5051819;28;20036;-65
2022/10/10 13:25:49;;;;;;;13.85;8.02;;;;;;;;;;5051303;28;20067;-66
2022/10/10 13:28:55;;;;;;;12.90;7.05;;;;;;;;;;5051424;28;20042;-65
2022/10/10 13:32:12;;;;;;;7.85;6.32;;;;;;;;;;5051486;28;20503;-65
2022/10/10 13:35:20;;;;;;;12.77;6.97;;;;;;;;;;5051503;28;20041;-66
2022/10/10 13:38:25;;;;;;;13.98;7.50;;;;;;;;;;5051684;28;20392;-66
2022/10/10 13:41:29;;;;;;;12.48;7.97;;;;;;;;;;5050309;28;20421;-65
2022/10/10 13:44:51;;;;;;;11.68;7.55;;;;;;;;;;5051189;28;20048;-65
2022/10/10 13:47:55;;;;;;;12.07;9.07;;;;;;;;;;5051020;28;20060;-65
2022/10/10 13:51:07;;;;;;;12.00;8.15;;;;;;;;;;5050766;28;20029;-65
2022/10/10 13:54:44;;;;;;;8.93;6.80;;;;;;;;;;5051029;28;20044;-65
2022/10/10 13:57:50;;;;;;;18.17;10.38;;;;;;;;;;5044878;28;20032;-67
2022/10/10 14:01:02;;;;;;;15.30;9.05;;;;;;;;;;5038950;28;20059;-67
2022/10/10 14:04:09;;;;;;;14.27;8.30;;;;;;;;;;5051129;28;20047;-67
2022/10/10 14:07:16;;;;;;;17.42;9.20;;;;;;;;;;5050582;28;20052;-67
2022/10/10 14:10:25;;;;;;;20.77;9.25;;;;;;;;;;5051079;28;20044;-67
2022/10/10 14:13:30;;;;;;;17.50;8.65;;;;;;;;;;5050168;28;20041;-67
2022/10/10 14:16:34;;;;;;;17.23;9.15;;;;;;;;;;5049216;28;20047;-69
2022/10/10 14:19:39;;;;;;;14.25;8.07;;;;;;;;;;5051205;28;20072;-67
2022/10/10 14:22:43;;;;;;;12.95;7.20;;;;;;;;;;5050792;28;20041;-69
2022/10/10 14:25:48;;;;;;;18.60;8.73;;;;;;;;;;5050617;28;20385;-67
2022/10/10 14:28:52;;;;;;;20.42;8.45;;;;;;;;;;5050857;28;20048;-68
2022/10/10 14:31:56;;;;;;;21.98;8.63;;;;;;;;;;5051216;28;20499;-67
2022/10/10 14:35:01;;;;;;;16.52;9.40;;;;;;;;;;5051023;28;20400;-67
2022/10/10 14:38:05;;;;;;;16.77;8.85;;;;;;;;;;5050466;28;20041;-67
2022/10/10 14:41:11;;;;;;;14.15;8.15;;;;;;;;;;5051284;28;20049;-67
2022/10/10 14:44:16;;;;;;;21.20;9.43;;;;;;;;;;5050465;28;20060;-67
2022/10/10 14:47:21;;;;;;;14.63;9.35;;;;;;;;;;5050049;28;20056;-66
2022/10/10 14:50:27;;;;;;;19.23;8.93;;;;;;;;;;5054404;28;20050;-66
2022/10/10 14:53:32;;;;;;;13.95;8.10;;;;;;;;;;5054221;28;20040;-67
2022/10/10 14:56:36;;;;;;;18.85;9.10;;;;;;;;;;5054246;28;20048;-67
2022/10/10 14:59:41;;;;;;;14.45;8.73;;;;;;;;;;5054518;28;20405;-69
2022/10/10 15:02:45;;;;;;;14.65;7.80;;;;;;;;;;5054679;28;20041;-68
2022/10/10 15:05:50;;;;;;;12.25;7.90;;;;;;;;;;5053414;28;20041;-67
2022/10/10 15:08:54;;;;;;;13.60;7.25;;;;;;;;;;5055069;28;20067;-68
2022/10/10 15:11:58;;;;;;;27.85;9.23;;;;;;;;;;5054409;28;20144;-68
2022/10/10 15:15:03;;;;;;;13.65;7.68;;;;;;;;;;5053779;28;20033;-69
2022/10/10 15:18:08;;;;;;;15.52;8.82;;;;;;;;;;5053820;28;20041;-68
2022/10/10 15:21:12;;;;;;;14.02;8.55;;;;;;;;;;5054064;28;20033;-68
2022/10/10 15:24:17;;;;;;;14.30;7.95;;;;;;;;;;5054075;28;20071;-66
2022/10/10 15:27:21;;;;;;;13.25;7.45;;;;;;;;;;5053749;28;20060;-66
2022/10/10 15:30:25;;;;;;;20.52;8.93;;;;;;;;;;5053932;28;20393;-66
2022/10/10 15:33:29;;;;;;;14.73;7.38;;;;;;;;;;5053440;28;20056;-66
2022/10/10 15:36:34;;;;;;;17.83;8.02;;;;;;;;;;5053470;28;20036;-66
2022/10/10 15:39:39;;;;;;;15.07;7.78;;;;;;;;;;5053761;28;20037;-68
2022/10/10 15:42:43;;;;;;;14.88;7.65;;;;;;;;;;5053616;28;20053;-68
2022/10/10 15:45:49;;;;;;;14.32;6.97;;;;;;;;;;5053322;28;20045;-68
2022/10/10 15:48:54;;;;;;;13.75;7.97;;;;;;;;;;5053284;28;20049;-68
2022/10/10 15:52:01;;;;;;;14.43;8.13;;;;;;;;;;5053309;28;20041;-67
2022/10/10 15:55:05;;;;;;;16.08;8.00;;;;;;;;;;5053178;28;20052;-67
2022/10/10 15:58:10;;;;;;;11.50;7.90;;;;;;;;;;5052312;28;20036;-66
2022/10/10 16:01:15;;;;;;;14.05;8.65;;;;;;;;;;5053314;28;20050;-67
2022/10/10 16:04:21;;;;;;;10.18;7.43;;;;;;;;;;5053462;28;20411;-69
2022/10/10 16:07:25;;;;;;;15.75;9.50;;;;;;;;;;5052902;28;20041;-69
2022/10/10 16:10:30;;;;;;;12.60;8.27;;;;;;;;;;5051707;28;20563;-67
2022/10/10 16:13:35;;;;;;;16.48;8.52;;;;;;;;;;5052765;28;20047;-66
2022/10/10 16:16:39;;;;;;;15.65;8.10;;;;;;;;;;5052662;28;20384;-66
2022/10/10 16:19:43;;;;;;;15.40;9.05;;;;;;;;;;5051976;28;20476;-69
2022/10/10 16:22:47;;;;;;;14.32;8.85;;;;;;;;;;5052530;28;20037;-67
2022/10/10 16:26:09;;;;;;;22.25;8.82;;;;;;;;;;5052115;28;20049;-68
2022/10/10 16:29:17;;;;;;;28.83;11.43;;;;;;;;;;5052744;28;20044;-68
2022/10/10 16:32:21;;;;;;;20.23;9.82;;;;;;;;;;5052379;28;20448;-66
2022/10/10 16:35:25;;;;;;;25.10;11.02;;;;;;;;;;5052242;28;20037;-65
2022/10/10 16:38:30;;;;;;;20.50;10.43;;;;;;;;;;5052582;28;20044;-68
2022/10/10 16:41:34;;;;;;;21.98;12.57;;;;;;;;;;5052471;28;20044;-66
2022/10/10 16:44:38;;;;;;;26.10;11.98;;;;;;;;;;5051944;28;20040;-67
2022/10/10 16:47:43;;;;;;;23.67;12.85;;;;;;;;;;5052059;28;20521;-68
2022/10/10 16:50:47;;;;;;;26.02;13.40;;;;;;;;;;5051999;28;20048;-66
2022/10/10 16:53:51;;;;;;;27.02;11.70;;;;;;;;;;5052091;28;20040;-66
2022/10/10 16:56:56;;;;;;;19.25;12.88;;;;;;;;;;5051722;28;20044;-68
2022/10/10 17:00:00;;;;;;;23.83;12.80;;;;;;;;;;5051819;28;20047;-68
2022/10/10 17:03:04;;;;;;;24.70;11.45;;;;;;;;;;5051857;28;20421;-68
2022/10/10 17:06:14;;;;;;;28.52;13.80;;;;;;;;;;5051464;28;20511;-67
2022/10/10 17:09:19;;;;;;;19.95;13.00;;;;;;;;;;5051446;28;20139;-67
2022/10/10 17:12:23;;;;;;;23.65;12.60;;;;;;;;;;5051068;28;20511;-66
2022/10/10 17:15:27;;;;;;;16.27;9.88;;;;;;;;;;5051107;28;20059;-66
2022/10/10 17:18:32;;;;;;;21.35;13.40;;;;;;;;;;5051268;28;20041;-67
2022/10/10 17:21:37;;;;;;;19.52;11.82;;;;;;;;;;5051615;28;20056;-67
2022/10/10 17:24:45;;;;;;;16.38;11.55;;;;;;;;;;5051583;28;20051;-69
2022/10/10 17:27:49;;;;;;;20.10;13.57;;;;;;;;;;5051410;28;20052;-68
2022/10/10 17:30:53;;;;;;;22.45;11.65;;;;;;;;;;5051314;28;20044;-66
2022/10/10 17:33:58;;;;;;;20.02;11.98;;;;;;;;;;5051464;28;20052;-66
2022/10/10 17:37:03;;;;;;;20.98;12.05;;;;;;;;;;5051363;28;20040;-66
2022/10/10 17:40:07;;;;;;;19.73;13.98;;;;;;;;;;5050993;28;20044;-66
2022/10/10 17:43:12;;;;;;;23.30;14.77;;;;;;;;;;5050447;28;20048;-68
2022/10/10 17:46:18;;;;;;;21.63;15.20;;;;;;;;;;5051053;28;20063;-66
2022/10/10 17:49:22;;;;;;;20.58;13.60;;;;;;;;;;5051017;28;20064;-66
2022/10/10 17:52:26;;;;;;;27.10;14.13;;;;;;;;;;5051447;28;20044;-68
2022/10/10 17:55:30;;;;;;;27.52;15.05;;;;;;;;;;5050775;28;20047;-66
2022/10/10 17:58:34;;;;;;;17.55;12.88;;;;;;;;;;5050762;28;20036;-65
2022/10/10 18:01:39;;;;;;;19.15;13.75;;;;;;;;;;5049635;28;20051;-65
2022/10/10 18:04:44;;;;;;;19.05;13.35;;;;;;;;;;5049886;28;20503;-65
2022/10/10 18:07:49;;;;;;;19.63;14.50;;;;;;;;;;5050888;28;20052;-66
2022/10/10 18:10:53;;;;;;;18.85;14.57;;;;;;;;;;5050920;28;20048;-66
2022/10/10 18:14:01;;;;;;;28.20;15.15;;;;;;;;;;5051060;28;20055;-66